Bacliff, Texas
Current Conditions -  °F | °C
As of 3:50 PM on Sunday 23 Nov 2014 (Local Time) from KEFD Reporting Station
Clear Clear  
Wind Chill: 26°   Ceiling: Unl
Heat Index: 26°   Visibility: 10mi
Dew Point: 13°   Wind: 14mph
Humidity: 44%   Direction: 220°SW
Pressure: 29.56"   Gusts: NA
Location:  29.51°N, 94.99°W
Report Text: KEFD 232150Z 22012KT 10SM CLR 26/13 A2956
Loading
Personal Weather Stations






























Interactive Weather Map New forecast layout! Learn more

10-Day Weather Forecast

Advertisements
Track Severe Weather on mobile